Saint Barthelemy, St. Barthelemy

8:37 PM AST on July 24, 2016 (GMT -0400)
Flamands | | Change Station

Elev 30 ft 17.92 °N, 62.86 °W | Updated 31 seconds ago

Partly Cloudy
Partly Cloudy
82.7 °F
Feels Like 89 °F
N
0.4
Wind Variable Wind from SSE
Gusts 1.6 mph

Today
High -- | Low -- °F
--% Chance of Precip.
Yesterday
High -- | Low -- °F
Precip. -- in
Pressure 30.01 in
Visibility 6.2 miles
Clouds Few 1900 ft
Heat Index 89 °F
Dew Point 74 °F
Humidity 74%
Rainfall 0.00 in
Snow Depth Not available.
5:47 AM 6:48 PM
Waning Gibbous, 71% visible
METAR TNCM 250000Z 08010KT 9999 FEW019TCU 28/24 Q1016 A3002 NOSIG
Pressure 30.01 in
Visibility 6.2 miles
Clouds Few 1900 ft
Heat Index 89 °F
Dew Point 74 °F
Humidity 74%
Rainfall 0.00 in
Snow Depth Not available.
5:47 AM 6:48 PM
Waning Gibbous, 71% visible
METAR TNCM 250000Z 08010KT 9999 FEW019TCU 28/24 Q1016 A3002 NOSIG

10-Day Weather Forecast

No radar image for this location.
×

Almanac

Astronomy

Jul. 24, 2016 Rise Set
Actual Time
Civil Twilight
Nautical Twilight
Astronomical Twilight
Moon
Length of Visible Light
Length of Day
Tomorrow will be .
, % of the Moon is Illuminated

Today's Extremes

Country Highs Country Lows

Community

WunderPhotos

Upload Photos

1,927,214 photos uploaded!

WunderBlog® & News

Nearby

Air Quality

  Air Quality AQ Index Pollutant
Not available.

Snow Depth

Station Depth Elevation

Earthquake Activity

City Distance Mag. Time & Date
Minimum magnitude displayed is 2.5.

Coastal Water Temperatures

Place Temperature

Stations

Nearby Weather Stations

Station Location Temp. Windchill Dew Point Humidity Wind Precip. Elev Updated Type